createdAt,value
2018-04-10T00:00:39.612Z,82.46
2018-04-10T00:01:39.616Z,82.75
2018-04-10T00:02:39.626Z,82.81
2018-04-10T00:03:39.610Z,82.23
2018-04-10T00:05:00.628Z,82.52
2018-04-10T00:05:39.613Z,82.32
2018-04-10T00:06:39.615Z,82.61
2018-04-10T00:07:39.611Z,82.14
2018-04-10T00:08:39.620Z,82.90
2018-04-10T00:09:39.612Z,82.52
2018-04-10T00:11:00.637Z,83.00
2018-04-10T00:11:39.608Z,82.61
2018-04-10T00:12:39.616Z,83.28
2018-04-10T00:13:39.607Z,83.18
2018-04-10T00:14:39.607Z,82.86
2018-04-10T00:15:39.606Z,82.52
2018-04-10T00:17:00.611Z,82.76
2018-04-10T00:17:39.604Z,82.48
2018-04-10T00:18:39.603Z,82.38
2018-04-10T00:19:39.600Z,82.38
2018-04-10T00:20:39.607Z,82.86
2018-04-10T00:21:39.603Z,82.76
2018-04-10T00:23:00.612Z,83.05
2018-04-10T00:23:39.599Z,82.86
2018-04-10T00:24:39.593Z,83.05
2018-04-10T00:25:39.592Z,83.14
2018-04-10T00:26:39.597Z,83.14
2018-04-10T00:27:39.593Z,83.05
2018-04-10T00:29:00.602Z,83.43
2018-04-10T00:29:39.590Z,83.24
2018-04-10T00:30:39.589Z,83.14
2018-04-10T00:31:39.588Z,83.43
2018-04-10T00:32:39.589Z,83.43
2018-04-10T00:33:39.594Z,83.43
2018-04-10T00:35:00.604Z,83.34
2018-04-10T00:35:39.598Z,83.53
2018-04-10T00:36:39.579Z,83.34
2018-04-10T00:37:39.584Z,83.34
2018-04-10T00:38:39.594Z,83.05
2018-04-10T00:39:39.599Z,82.76
2018-04-10T00:41:00.595Z,82.76
2018-04-10T00:41:39.577Z,83.14
2018-04-10T00:42:39.587Z,82.86
2018-04-10T00:43:39.571Z,82.76
2018-04-10T00:44:39.570Z,83.14
2018-04-10T00:45:39.569Z,83.14
2018-04-10T00:47:00.586Z,83.14
2018-04-10T00:47:39.574Z,82.48
2018-04-10T00:48:39.571Z,82.67
2018-04-10T00:49:39.567Z,82.67
2018-04-10T00:50:39.563Z,82.86
2018-04-10T00:51:39.570Z,83.24
2018-04-10T00:53:00.567Z,83.28
2018-04-10T00:53:39.563Z,82.38
2018-04-10T00:54:39.571Z,82.38
2018-04-10T00:55:39.568Z,82.67
2018-04-10T00:56:39.578Z,82.67
2018-04-10T00:57:39.560Z,82.76
2018-04-10T00:59:00.563Z,82.57
2018-04-10T00:59:39.560Z,83.05
2018-04-10T01:00:39.565Z,82.86
2018-04-10T01:01:39.555Z,82.29
2018-04-10T01:02:39.555Z,82.95
2018-04-10T01:03:39.540Z,82.76
2018-04-10T01:05:00.566Z,83.24
2018-04-10T01:05:39.543Z,82.76
2018-04-10T01:06:39.545Z,83.53
2018-04-10T01:07:39.551Z,82.95
2018-04-10T01:08:39.550Z,83.53
2018-04-10T01:09:39.541Z,82.76
2018-04-10T01:11:00.557Z,82.86
2018-04-10T01:11:39.539Z,83.53
2018-04-10T01:12:39.543Z,83.53
2018-04-10T01:13:39.534Z,83.62
2018-04-10T01:14:39.531Z,83.24
2018-04-10T01:15:39.534Z,83.14
2018-04-10T01:17:00.545Z,83.34
2018-04-10T01:17:39.532Z,83.48
2018-04-10T01:18:39.529Z,83.67
2018-04-10T01:19:39.526Z,83.11
2018-04-10T01:20:39.531Z,84.16
2018-04-10T01:21:39.536Z,83.96
2018-04-10T01:23:00.538Z,83.48
2018-04-10T01:23:39.522Z,83.96
2018-04-10T01:24:39.523Z,83.96
2018-04-10T01:25:39.522Z,83.96
2018-04-10T01:26:39.518Z,83.39
2018-04-10T01:27:39.518Z,83.58
2018-04-10T01:29:00.526Z,84.06
2018-04-10T01:29:39.519Z,83.87
2018-04-10T01:30:39.514Z,83.67
2018-04-10T01:31:39.515Z,84.06
2018-04-10T01:32:39.508Z,83.77
2018-04-10T01:33:39.506Z,83.96
2018-04-10T01:35:00.516Z,83.87
2018-04-10T01:35:39.509Z,83.96
2018-04-10T01:36:39.504Z,84.53
2018-04-10T01:37:39.498Z,84.06
2018-04-10T01:38:39.493Z,84.16
2018-04-10T01:39:39.497Z,84.53
2018-04-10T01:41:00.519Z,83.87
2018-04-10T01:41:39.493Z,83.96
2018-04-10T01:42:39.491Z,84.25
2018-04-10T01:43:39.493Z,83.96
2018-04-10T01:44:39.493Z,84.16
2018-04-10T01:45:39.493Z,84.06
2018-04-10T01:47:00.496Z,83.96
2018-04-10T01:47:39.479Z,84.00
2018-04-10T01:48:39.481Z,83.91
2018-04-10T01:49:39.492Z,84.00
2018-04-10T01:50:39.491Z,83.53
2018-04-10T01:51:39.478Z,83.43
2018-04-10T01:53:00.496Z,83.62
2018-04-10T01:53:39.474Z,83.53
2018-04-10T01:54:39.481Z,83.43
2018-04-10T01:55:39.472Z,83.53
2018-04-10T01:56:39.472Z,83.53
2018-04-10T01:57:39.472Z,83.43
2018-04-10T01:59:00.478Z,83.53
2018-04-10T01:59:39.461Z,83.43
2018-04-10T02:00:39.455Z,83.34
2018-04-10T02:01:39.462Z,83.43
2018-04-10T02:02:39.459Z,83.05
2018-04-10T02:03:39.458Z,83.43
2018-04-10T02:05:00.470Z,84.06
2018-04-10T02:05:39.459Z,83.77
2018-04-10T02:06:39.453Z,84.16
2018-04-10T02:07:39.445Z,83.39
2018-04-10T02:08:39.449Z,83.67
2018-04-10T02:09:39.442Z,84.25
2018-04-10T02:11:00.449Z,83.87
2018-04-10T02:11:39.441Z,84.53
2018-04-10T02:12:39.440Z,83.67
2018-04-10T02:13:39.439Z,84.49
2018-04-10T02:14:39.440Z,84.44
2018-04-10T02:15:39.438Z,83.87
2018-04-10T02:17:00.435Z,84.25
2018-04-10T02:17:39.438Z,84.53
2018-04-10T02:18:39.430Z,84.25
2018-04-10T02:19:39.424Z,84.25
2018-04-10T02:20:39.424Z,84.63
2018-04-10T02:21:39.424Z,84.34
2018-04-10T02:23:00.429Z,84.06
2018-04-10T02:23:39.419Z,84.44
2018-04-10T02:24:39.451Z,84.63
2018-04-10T02:25:39.410Z,84.63
2018-04-10T02:26:39.416Z,84.16
2018-04-10T02:27:39.425Z,84.53
2018-04-10T02:29:00.418Z,84.53
2018-04-10T02:29:39.409Z,84.16
2018-04-10T02:30:39.408Z,83.67
2018-04-10T02:31:39.406Z,83.96
2018-04-10T02:32:39.411Z,84.25
2018-04-10T02:33:39.408Z,84.53
2018-04-10T02:35:00.406Z,83.96
2018-04-10T02:35:39.404Z,84.53
2018-04-10T02:36:39.395Z,83.96
2018-04-10T02:37:39.400Z,84.34
2018-04-10T02:38:39.396Z,84.06
2018-04-10T02:39:39.377Z,83.87
2018-04-10T02:41:00.395Z,84.06
2018-04-10T02:41:39.394Z,83.96
2018-04-10T02:42:39.383Z,83.77
2018-04-10T02:43:39.379Z,84.06
2018-04-10T02:44:39.380Z,83.87
2018-04-10T02:45:39.376Z,83.91
2018-04-10T02:47:00.388Z,83.81
2018-04-10T02:47:39.371Z,83.91
2018-04-10T02:48:39.365Z,84.10
2018-04-10T02:49:39.375Z,83.91
2018-04-10T02:50:39.368Z,83.81
2018-04-10T02:51:39.367Z,83.96
2018-04-10T02:53:00.367Z,83.87
2018-04-10T02:53:39.354Z,84.10
2018-04-10T02:54:39.355Z,84.10
2018-04-10T02:55:39.356Z,83.62
2018-04-10T02:56:39.348Z,83.53
2018-04-10T02:57:39.350Z,83.34
2018-04-10T02:59:00.357Z,83.62
2018-04-10T02:59:39.341Z,83.72
2018-04-10T03:00:39.347Z,84.00
2018-04-10T03:01:39.351Z,83.34
2018-04-10T03:02:39.335Z,83.91
2018-04-10T03:03:39.340Z,83.53
2018-04-10T03:05:00.342Z,84.10
2018-04-10T03:05:39.333Z,83.34
2018-04-10T03:06:39.324Z,84.10
2018-04-10T03:07:39.331Z,83.91
2018-04-10T03:08:39.327Z,83.43
2018-04-10T03:09:39.334Z,84.00
2018-04-10T03:11:00.341Z,83.91
2018-04-10T03:11:39.320Z,83.62
2018-04-10T03:12:39.321Z,83.62
2018-04-10T03:13:39.311Z,83.72
2018-04-10T03:14:39.313Z,84.10
2018-04-10T03:15:39.311Z,83.81
2018-04-10T03:17:00.314Z,84.00
2018-04-10T03:17:39.303Z,84.00
2018-04-10T03:18:39.302Z,83.91
2018-04-10T03:19:39.298Z,83.91
2018-04-10T03:20:39.298Z,84.00
2018-04-10T03:21:39.307Z,83.91
2018-04-10T03:23:00.311Z,84.00
2018-04-10T03:23:39.292Z,83.81
2018-04-10T03:24:39.302Z,84.00
2018-04-10T03:25:39.289Z,83.91
2018-04-10T03:26:39.286Z,83.72
2018-04-10T03:27:39.294Z,83.53
2018-04-10T03:29:00.301Z,83.81
2018-04-10T03:29:39.282Z,83.81
2018-04-10T03:30:39.277Z,83.72
2018-04-10T03:31:39.277Z,84.10
2018-04-10T03:32:39.271Z,84.00
2018-04-10T03:33:39.271Z,83.72
2018-04-10T03:35:00.275Z,83.81
2018-04-10T03:35:39.270Z,83.91
2018-04-10T03:36:39.263Z,84.10
2018-04-10T03:37:39.264Z,83.72
2018-04-10T03:38:39.263Z,83.53
2018-04-10T03:39:39.261Z,84.10
2018-04-10T03:41:00.267Z,83.81
2018-04-10T03:41:39.252Z,83.91
2018-04-10T03:42:39.247Z,83.62
2018-04-10T03:43:39.248Z,83.62
2018-04-10T03:44:39.243Z,83.81
2018-04-10T03:45:39.243Z,84.00
2018-04-10T03:47:00.248Z,84.00
2018-04-10T03:47:39.233Z,84.10
2018-04-10T03:48:39.232Z,84.10
2018-04-10T03:49:39.235Z,83.72
2018-04-10T03:50:39.228Z,84.00
2018-04-10T03:51:39.231Z,84.00
2018-04-10T03:53:00.232Z,83.91
2018-04-10T03:53:39.217Z,84.00
2018-04-10T03:54:39.237Z,84.20
2018-04-10T03:55:39.225Z,83.87
2018-04-10T03:56:39.216Z,84.06
2018-04-10T03:57:39.209Z,84.63
2018-04-10T03:59:00.221Z,84.34
2018-04-10T03:59:39.205Z,84.06
2018-04-10T04:00:39.203Z,84.44
2018-04-10T04:01:39.206Z,83.77
2018-04-10T04:02:39.210Z,84.53
2018-04-10T04:03:39.199Z,84.16
2018-04-10T04:05:00.202Z,84.53
2018-04-10T04:05:39.189Z,83.58
2018-04-10T04:06:39.188Z,83.87
2018-04-10T04:07:39.185Z,84.34
2018-04-10T04:08:39.188Z,84.53
2018-04-10T04:09:39.186Z,83.67
2018-04-10T04:11:00.196Z,83.77
2018-04-10T04:11:39.180Z,84.72
2018-04-10T04:12:39.185Z,84.44
2018-04-10T04:13:39.176Z,84.63
2018-04-10T04:14:39.182Z,84.34
2018-04-10T04:15:39.171Z,84.44
2018-04-10T04:17:00.170Z,84.72
2018-04-10T04:17:39.174Z,84.63
2018-04-10T04:18:39.165Z,84.63
2018-04-10T04:19:39.165Z,84.44
2018-04-10T04:20:39.169Z,84.44
2018-04-10T04:21:39.151Z,84.63
2018-04-10T04:23:00.174Z,83.87
2018-04-10T04:23:39.156Z,84.63
2018-04-10T04:24:39.147Z,84.44
2018-04-10T04:25:39.140Z,84.44
2018-04-10T04:26:39.143Z,84.25
2018-04-10T04:27:39.151Z,84.82
2018-04-10T04:29:00.149Z,84.44
2018-04-10T04:29:39.137Z,84.82
2018-04-10T04:30:39.138Z,84.72
2018-04-10T04:31:39.133Z,84.63
2018-04-10T04:32:39.131Z,84.44
2018-04-10T04:33:39.123Z,84.53
2018-04-10T04:35:00.136Z,84.63
2018-04-10T04:35:39.114Z,84.44
2018-04-10T04:36:39.122Z,84.44
2018-04-10T04:37:39.120Z,84.44
2018-04-10T04:38:39.118Z,84.44
2018-04-10T04:39:39.111Z,84.44
2018-04-10T04:41:00.121Z,84.44
2018-04-10T04:41:39.107Z,84.44
2018-04-10T04:42:39.105Z,84.44
2018-04-10T04:43:39.103Z,84.48
2018-04-10T04:44:39.101Z,83.91
2018-04-10T04:45:39.100Z,84.10
2018-04-10T04:47:00.098Z,84.29
2018-04-10T04:47:39.095Z,84.58
2018-04-10T04:48:39.097Z,83.91
2018-04-10T04:49:39.086Z,84.29
2018-04-10T04:50:39.092Z,84.29
2018-04-10T04:51:39.080Z,84.29
2018-04-10T04:53:00.079Z,84.10
2018-04-10T04:53:39.078Z,83.91
2018-04-10T04:54:39.166Z,83.91
2018-04-10T04:55:39.063Z,84.00
2018-04-10T04:56:39.069Z,84.10
2018-04-10T04:57:39.058Z,84.00
2018-04-10T04:59:00.112Z,84.00
2018-04-10T04:59:39.098Z,84.00
2018-04-10T05:00:39.064Z,83.91
2018-04-10T05:01:39.054Z,83.91
2018-04-10T05:02:39.068Z,83.91
2018-04-10T05:03:39.048Z,83.86
2018-04-10T05:05:00.053Z,84.10
2018-04-10T05:05:39.049Z,83.91
2018-04-10T05:06:39.474Z,83.76
2018-04-10T05:07:39.038Z,83.28
2018-04-10T05:08:39.031Z,83.57
2018-04-10T05:09:39.035Z,83.95
2018-04-10T05:11:00.040Z,83.86
2018-04-10T05:11:39.043Z,83.76
2018-04-10T05:12:39.024Z,83.67
2018-04-10T05:13:39.047Z,83.86
2018-04-10T05:14:39.027Z,83.57
2018-04-10T05:15:39.020Z,83.57
2018-04-10T05:17:00.025Z,83.86
2018-04-10T05:17:39.021Z,83.47
2018-04-10T05:18:39.011Z,83.38
2018-04-10T05:19:39.018Z,83.23
2018-04-10T05:20:39.024Z,83.23
2018-04-10T05:21:39.017Z,82.98
2018-04-10T05:23:00.037Z,82.22
2018-04-10T05:23:39.003Z,81.45
2018-04-10T05:24:39.004Z,81.78
2018-04-10T05:25:39.001Z,81.11
2018-04-10T05:26:39.000Z,81.30
2018-04-10T05:27:38.993Z,81.30
2018-04-10T05:29:00.009Z,81.59
2018-04-10T05:29:38.995Z,81.34
2018-04-10T05:30:38.988Z,81.54
2018-04-10T05:31:38.997Z,80.77
2018-04-10T05:32:38.984Z,80.77
2018-04-10T05:33:38.989Z,81.00
2018-04-10T05:34:59.988Z,80.33
2018-04-10T05:35:39.006Z,80.04
2018-04-10T05:36:38.977Z,79.85
2018-04-10T05:37:38.974Z,80.37
2018-04-10T05:38:38.978Z,79.60
2018-04-10T05:39:38.982Z,79.51
2018-04-10T05:40:59.992Z,79.26
2018-04-10T05:41:38.970Z,79.07
2018-04-10T05:42:38.975Z,78.69
2018-04-10T05:43:38.973Z,79.03
2018-04-10T05:44:38.979Z,79.32
2018-04-10T05:45:38.979Z,79.32
2018-04-10T05:46:59.985Z,79.80
2018-04-10T05:47:38.968Z,80.62
2018-04-10T05:48:38.978Z,80.43
2018-04-10T05:49:39.012Z,80.90
2018-04-10T05:50:38.971Z,80.14
2018-04-10T05:51:38.965Z,80.24
2018-04-10T05:52:59.967Z,80.08
2018-04-10T05:53:38.969Z,79.89
2018-04-10T05:54:38.977Z,79.89
2018-04-10T05:55:38.965Z,79.07
2018-04-10T05:56:38.974Z,79.36
2018-04-10T05:57:38.965Z,78.49
2018-04-10T05:58:59.971Z,78.74
2018-04-10T05:59:38.964Z,78.97
2018-04-10T06:00:38.968Z,78.69
2018-04-10T06:01:38.967Z,78.49
2018-04-10T06:02:38.970Z,78.78
2018-04-10T06:03:38.972Z,77.86
2018-04-10T06:04:59.975Z,78.78
2018-04-10T06:05:38.964Z,78.05
2018-04-10T06:06:38.995Z,77.58
2018-04-10T06:07:38.962Z,77.58
2018-04-10T06:08:38.969Z,76.81
2018-04-10T06:09:38.956Z,76.86
2018-04-10T06:10:59.980Z,77.53
2018-04-10T06:11:38.965Z,77.58
2018-04-10T06:12:38.963Z,76.90
2018-04-10T06:13:38.961Z,77.09
2018-04-10T06:14:38.960Z,76.96
2018-04-10T06:15:38.962Z,77.44
2018-04-10T06:16:59.972Z,77.92
2018-04-10T06:17:38.965Z,76.90
2018-04-10T06:18:38.975Z,76.42
2018-04-10T06:19:38.967Z,74.54
2018-04-10T06:20:38.957Z,75.46
2018-04-10T06:21:38.978Z,75.90
2018-04-10T06:22:59.981Z,77.15
2018-04-10T06:23:38.964Z,76.52
2018-04-10T06:24:38.972Z,75.21
2018-04-10T06:25:38.972Z,74.22
2018-04-10T06:26:39.039Z,74.26
2018-04-10T06:27:38.973Z,73.58
2018-04-10T06:28:59.973Z,73.39
2018-04-10T06:29:38.965Z,74.44
2018-04-10T06:30:38.972Z,73.49
2018-04-10T06:31:38.968Z,73.83
2018-04-10T06:32:38.968Z,74.44
2018-04-10T06:33:38.973Z,73.30
2018-04-10T06:34:59.990Z,72.47
2018-04-10T06:35:38.972Z,70.97
2018-04-10T06:36:38.973Z,69.91
2018-04-10T06:37:38.972Z,67.51
2018-04-10T06:38:38.968Z,68.66
2018-04-10T06:39:38.969Z,68.95
2018-04-10T06:40:59.980Z,68.57
2018-04-10T06:41:38.983Z,69.05
2018-04-10T06:42:38.983Z,69.91
2018-04-10T06:43:38.983Z,69.14
2018-04-10T06:44:38.976Z,70.36
2018-04-10T06:45:38.984Z,70.29
2018-04-10T06:46:59.988Z,69.05
2018-04-10T06:47:39.064Z,69.14
2018-04-10T06:48:38.994Z,70.55
2018-04-10T06:49:38.980Z,70.87
2018-04-10T06:50:38.985Z,68.95
2018-04-10T06:51:38.989Z,67.54
2018-04-10T06:53:00.007Z,66.20
2018-04-10T06:53:39.006Z,66.00
2018-04-10T06:54:38.993Z,66.74
2018-04-10T06:55:38.994Z,67.22
2018-04-10T06:56:39.003Z,67.61
2018-04-10T06:57:38.999Z,68.76
2018-04-10T06:59:00.015Z,68.28
2018-04-10T06:59:39.006Z,67.16
2018-04-10T07:00:39.011Z,66.04
2018-04-10T07:01:39.018Z,64.60
2018-04-10T07:02:39.015Z,63.38
2018-04-10T07:03:39.009Z,62.96
2018-04-10T07:05:00.034Z,64.28
2018-04-10T07:05:39.020Z,64.98
2018-04-10T07:06:39.020Z,65.05
2018-04-10T07:07:39.027Z,66.55
2018-04-10T07:08:39.024Z,66.87
2018-04-10T07:09:39.029Z,66.49
2018-04-10T07:11:00.046Z,67.25
2018-04-10T07:11:39.031Z,68.15
2018-04-10T07:12:39.030Z,68.47
2018-04-10T07:13:39.036Z,66.68
2018-04-10T07:14:39.044Z,65.17
2018-04-10T07:15:39.048Z,62.90
2018-04-10T07:17:00.048Z,62.87
2018-04-10T07:17:39.045Z,64.02
2018-04-10T07:18:39.046Z,64.40
2018-04-10T07:19:39.041Z,64.02
2018-04-10T07:20:39.049Z,63.45
2018-04-10T07:21:39.055Z,63.64
2018-04-10T07:23:00.066Z,62.23
2018-04-10T07:23:39.060Z,61.94
2018-04-10T07:24:39.071Z,61.39
2018-04-10T07:25:39.059Z,61.00
2018-04-10T07:26:39.069Z,62.10
2018-04-10T07:27:39.070Z,62.80
2018-04-10T07:29:00.091Z,62.16
2018-04-10T07:29:39.075Z,60.75
2018-04-10T07:30:39.082Z,60.81
2018-04-10T07:31:39.093Z,59.78
2018-04-10T07:32:39.093Z,57.60
2018-04-10T07:33:39.089Z,58.79
2018-04-10T07:35:00.112Z,58.85
2018-04-10T07:35:39.112Z,60.04
2018-04-10T07:36:39.140Z,60.81
2018-04-10T07:37:39.101Z,60.24
2018-04-10T07:38:39.100Z,60.36
2018-04-10T07:39:39.136Z,60.46
2018-04-10T07:41:00.127Z,61.19
2018-04-10T07:41:39.123Z,62.83
2018-04-10T07:42:39.118Z,63.09
2018-04-10T07:43:39.141Z,63.32
2018-04-10T07:44:39.132Z,66.20
2018-04-10T07:45:39.129Z,67.70
2018-04-10T07:47:00.140Z,68.57
2018-04-10T07:47:39.142Z,70.64
2018-04-10T07:48:39.141Z,70.93
2018-04-10T07:49:39.156Z,70.93
2018-04-10T07:50:39.150Z,71.70
2018-04-10T07:51:39.150Z,71.70
2018-04-10T07:53:00.166Z,71.61
2018-04-10T07:53:39.159Z,71.70
2018-04-10T07:54:39.159Z,72.95
2018-04-10T07:55:39.167Z,73.04
2018-04-10T07:56:39.162Z,72.28
2018-04-10T07:57:39.166Z,73.24
2018-04-10T07:59:00.176Z,73.33
2018-04-10T07:59:39.180Z,73.33
2018-04-10T08:00:39.184Z,72.75
2018-04-10T08:01:39.174Z,73.33
2018-04-10T08:02:39.207Z,73.18
2018-04-10T08:03:39.184Z,73.37
2018-04-10T08:05:00.195Z,72.31
2018-04-10T08:05:39.180Z,71.83
2018-04-10T08:06:39.185Z,70.97
2018-04-10T08:07:39.192Z,71.06
2018-04-10T08:08:39.186Z,71.83
2018-04-10T08:09:39.184Z,71.83
2018-04-10T08:11:00.205Z,71.55
2018-04-10T08:11:39.192Z,72.85
2018-04-10T08:12:39.202Z,72.47
2018-04-10T08:13:39.206Z,73.04
2018-04-10T08:14:39.206Z,72.28
2018-04-10T08:15:39.207Z,72.18
2018-04-10T08:17:00.214Z,72.47
2018-04-10T08:17:39.209Z,72.47
2018-04-10T08:18:39.207Z,72.47
2018-04-10T08:19:39.212Z,71.93
2018-04-10T08:20:39.210Z,70.93
2018-04-10T08:21:39.217Z,71.70
2018-04-10T08:23:00.222Z,71.55
2018-04-10T08:23:39.213Z,71.55
2018-04-10T08:24:39.217Z,71.93
2018-04-10T08:25:39.224Z,72.60
2018-04-10T08:26:39.219Z,71.83
2018-04-10T08:27:39.232Z,72.12
2018-04-10T08:29:00.229Z,71.55
2018-04-10T08:29:39.229Z,70.97
2018-04-10T08:30:39.227Z,70.97
2018-04-10T08:31:39.233Z,72.02
2018-04-10T08:32:39.230Z,71.64
2018-04-10T08:33:39.228Z,70.87
2018-04-10T08:35:00.377Z,70.78
2018-04-10T08:35:39.238Z,71.29
2018-04-10T08:36:39.244Z,71.55
2018-04-10T08:37:39.227Z,72.16
2018-04-10T08:38:39.239Z,71.96
2018-04-10T08:39:39.235Z,70.90
2018-04-10T08:41:00.243Z,71.87
2018-04-10T08:41:39.236Z,70.90
2018-04-10T08:42:39.238Z,70.81
2018-04-10T08:43:39.243Z,70.62
2018-04-10T08:44:39.244Z,71.23
2018-04-10T08:45:39.282Z,70.62
2018-04-10T08:47:00.255Z,70.94
2018-04-10T08:47:39.255Z,71.10
2018-04-10T08:48:39.253Z,71.33
2018-04-10T08:49:39.245Z,71.04
2018-04-10T08:50:39.245Z,70.27
2018-04-10T08:51:39.264Z,70.84
2018-04-10T08:53:00.295Z,70.56
2018-04-10T08:53:39.255Z,70.56
2018-04-10T08:54:39.265Z,70.27
2018-04-10T08:55:39.258Z,70.84
2018-04-10T08:56:39.254Z,69.79
2018-04-10T08:57:39.256Z,70.17
2018-04-10T08:59:00.278Z,70.46
2018-04-10T08:59:39.266Z,69.79
2018-04-10T09:00:39.260Z,70.07
2018-04-10T09:01:39.267Z,69.60
2018-04-10T09:02:39.274Z,69.12
2018-04-10T09:03:39.270Z,69.60
2018-04-10T09:05:00.277Z,69.31
2018-04-10T09:05:39.274Z,68.54
2018-04-10T09:06:39.271Z,69.21
2018-04-10T09:07:39.287Z,69.79
2018-04-10T09:08:39.287Z,68.83
2018-04-10T09:09:39.285Z,69.31
2018-04-10T09:11:00.299Z,68.83
2018-04-10T09:11:39.285Z,69.34
2018-04-10T09:12:39.299Z,68.38
2018-04-10T09:13:39.288Z,67.90
2018-04-10T09:14:39.291Z,66.46
2018-04-10T09:15:39.289Z,67.07
2018-04-10T09:17:00.299Z,66.49
2018-04-10T09:17:39.289Z,66.58
2018-04-10T09:18:39.297Z,66.10
2018-04-10T09:19:39.301Z,66.65
2018-04-10T09:20:39.301Z,67.32
2018-04-10T09:21:39.314Z,66.58
2018-04-10T09:23:00.317Z,65.81
2018-04-10T09:23:39.308Z,64.86
2018-04-10T09:24:39.304Z,63.99
2018-04-10T09:25:39.312Z,64.66
2018-04-10T09:26:39.311Z,66.27
2018-04-10T09:27:39.320Z,66.20
2018-04-10T09:29:00.328Z,65.81
2018-04-10T09:29:39.325Z,65.91
2018-04-10T09:30:39.321Z,65.63
2018-04-10T09:31:39.349Z,64.37
2018-04-10T09:32:39.337Z,64.08
2018-04-10T09:33:39.325Z,63.70
2018-04-10T09:35:00.331Z,63.70
2018-04-10T09:35:39.332Z,64.28
2018-04-10T09:36:39.337Z,63.99
2018-04-10T09:37:39.337Z,63.82
2018-04-10T09:38:39.338Z,63.79
2018-04-10T09:39:39.338Z,63.54
2018-04-10T09:41:00.354Z,62.77
2018-04-10T09:41:39.345Z,63.15
2018-04-10T09:42:39.349Z,62.77
2018-04-10T09:43:39.397Z,62.09
2018-04-10T09:44:39.350Z,61.71
2018-04-10T09:45:39.355Z,61.71
2018-04-10T09:47:00.370Z,62.32
2018-04-10T09:47:39.357Z,61.29
2018-04-10T09:48:39.356Z,60.58
2018-04-10T09:49:39.364Z,60.90
2018-04-10T09:50:39.372Z,60.42
2018-04-10T09:51:39.380Z,60.32
2018-04-10T09:53:00.378Z,60.71
2018-04-10T09:53:39.373Z,59.36
2018-04-10T09:54:39.376Z,58.88
2018-04-10T09:55:39.388Z,58.88
2018-04-10T09:56:39.383Z,59.33
2018-04-10T09:57:39.387Z,60.61
2018-04-10T09:59:00.392Z,58.88
2018-04-10T09:59:39.386Z,58.56
2018-04-10T10:00:39.389Z,60.10
2018-04-10T10:01:39.397Z,58.95
2018-04-10T10:02:39.397Z,58.95
2018-04-10T10:03:39.394Z,60.23
2018-04-10T10:05:00.421Z,59.94
2018-04-10T10:05:39.408Z,58.69
2018-04-10T10:06:39.407Z,58.78
2018-04-10T10:07:39.406Z,58.14
2018-04-10T10:08:39.425Z,57.43
2018-04-10T10:09:39.422Z,58.20
2018-04-10T10:11:00.430Z,58.27
2018-04-10T10:11:39.422Z,57.98
2018-04-10T10:12:39.427Z,58.27
2018-04-10T10:13:39.429Z,58.17
2018-04-10T10:14:39.434Z,58.11
2018-04-10T10:15:39.441Z,58.69
2018-04-10T10:17:00.446Z,57.43
2018-04-10T10:17:39.450Z,58.91
2018-04-10T10:18:39.437Z,56.98
2018-04-10T10:19:39.441Z,56.69
2018-04-10T10:20:39.448Z,56.49
2018-04-10T10:21:39.454Z,55.73
2018-04-10T10:23:00.477Z,56.01
2018-04-10T10:23:39.457Z,56.01
2018-04-10T10:24:39.460Z,56.01
2018-04-10T10:25:39.464Z,56.21
2018-04-10T10:26:39.474Z,56.40
2018-04-10T10:27:39.474Z,56.52
2018-04-10T10:29:00.480Z,56.33
2018-04-10T10:29:39.482Z,56.11
2018-04-10T10:30:39.479Z,56.21
2018-04-10T10:31:39.478Z,56.33
2018-04-10T10:32:39.483Z,55.56
2018-04-10T10:33:39.488Z,54.69
2018-04-10T10:35:00.503Z,55.10
2018-04-10T10:35:39.486Z,53.15
2018-04-10T10:36:39.490Z,52.67
2018-04-10T10:37:39.503Z,52.57
2018-04-10T10:38:39.496Z,52.86
2018-04-10T10:39:39.509Z,52.67
2018-04-10T10:41:00.511Z,52.47
2018-04-10T10:41:39.540Z,52.45
2018-04-10T10:42:39.518Z,52.67
2018-04-10T10:43:39.531Z,53.05
2018-04-10T10:44:39.528Z,52.79
2018-04-10T10:45:39.522Z,52.37
2018-04-10T10:47:00.581Z,52.67
2018-04-10T10:47:39.522Z,52.95
2018-04-10T10:48:39.532Z,53.05
2018-04-10T10:49:39.537Z,53.05
2018-04-10T10:50:39.543Z,52.76
2018-04-10T10:51:39.540Z,52.57
2018-04-10T10:53:00.559Z,52.40
2018-04-10T10:53:39.551Z,52.50
2018-04-10T10:54:39.559Z,52.57
2018-04-10T10:55:39.566Z,52.69
2018-04-10T10:56:39.552Z,52.59
2018-04-10T10:57:39.560Z,52.59
2018-04-10T10:59:00.576Z,51.82
2018-04-10T10:59:39.572Z,52.89
2018-04-10T11:00:39.572Z,52.50
2018-04-10T11:01:39.576Z,52.31
2018-04-10T11:02:39.579Z,51.63
2018-04-10T11:03:39.588Z,51.15
2018-04-10T11:05:00.596Z,50.86
2018-04-10T11:05:39.590Z,50.76
2018-04-10T11:06:39.594Z,51.44
2018-04-10T11:07:39.601Z,52.01
2018-04-10T11:08:39.603Z,52.62
2018-04-10T11:09:39.649Z,51.17
2018-04-10T11:11:00.639Z,51.25
2018-04-10T11:11:39.622Z,51.95
2018-04-10T11:12:39.625Z,51.37
2018-04-10T11:13:39.622Z,50.69
2018-04-10T11:14:39.636Z,50.40
2018-04-10T11:15:39.637Z,50.76
2018-04-10T11:17:00.640Z,51.34
2018-04-10T11:17:39.629Z,51.85
2018-04-10T11:18:39.641Z,50.89
2018-04-10T11:19:39.644Z,50.79
2018-04-10T11:20:39.644Z,50.11
2018-04-10T11:21:39.645Z,51.39
2018-04-10T11:23:00.676Z,49.55
2018-04-10T11:23:39.656Z,49.37
2018-04-10T11:24:39.665Z,50.23
2018-04-10T11:25:39.666Z,49.63
2018-04-10T11:26:39.672Z,49.44
2018-04-10T11:27:39.677Z,50.04
2018-04-10T11:29:00.689Z,50.13
2018-04-10T11:29:39.689Z,49.82
2018-04-10T11:30:39.698Z,49.15
2018-04-10T11:31:39.686Z,49.41
2018-04-10T11:32:39.691Z,49.90
2018-04-10T11:33:39.698Z,49.63
2018-04-10T11:35:00.718Z,49.44
2018-04-10T11:35:39.704Z,48.76
2018-04-10T11:36:39.712Z,49.44
2018-04-10T11:37:39.717Z,49.82
2018-04-10T11:38:39.722Z,50.11
2018-04-10T11:39:39.726Z,50.43
2018-04-10T11:41:00.741Z,50.71
2018-04-10T11:41:39.731Z,50.43
2018-04-10T11:42:39.821Z,49.68
2018-04-10T11:43:39.816Z,49.68
2018-04-10T11:44:39.748Z,48.93
2018-04-10T11:45:39.946Z,49.10
2018-04-10T11:47:00.757Z,49.77
2018-04-10T11:47:39.758Z,49.75
2018-04-10T11:48:39.763Z,49.65
2018-04-10T11:49:39.790Z,49.39
2018-04-10T11:50:39.770Z,48.71
2018-04-10T11:51:39.777Z,48.32
2018-04-10T11:53:00.817Z,48.13
2018-04-10T11:53:39.832Z,48.32
2018-04-10T11:54:39.801Z,47.94
2018-04-10T11:55:39.802Z,48.90
2018-04-10T11:56:39.814Z,48.61
2018-04-10T11:57:39.803Z,48.23
2018-04-10T11:59:00.816Z,48.88
2018-04-10T11:59:39.805Z,49.29
2018-04-10T12:00:39.813Z,49.49
2018-04-10T12:01:39.814Z,48.44
2018-04-10T12:02:39.814Z,48.16
2018-04-10T12:03:39.832Z,48.13
2018-04-10T12:05:00.864Z,47.65
2018-04-10T12:05:39.829Z,48.71
2018-04-10T12:06:39.882Z,48.35
2018-04-10T12:07:39.836Z,47.96
2018-04-10T12:08:39.849Z,48.35
2018-04-10T12:09:39.850Z,48.32
2018-04-10T12:11:00.865Z,48.23
2018-04-10T12:11:40.071Z,48.71
2018-04-10T12:12:39.861Z,48.71
2018-04-10T12:13:40.087Z,48.13
2018-04-10T12:14:40.325Z,48.13
2018-04-10T12:15:39.879Z,48.23
2018-04-10T12:17:00.976Z,48.59
2018-04-10T12:17:39.887Z,48.71
2018-04-10T12:18:39.982Z,48.32
2018-04-10T12:19:40.110Z,48.71
2018-04-10T12:20:39.898Z,48.03
2018-04-10T12:21:39.908Z,49.32
2018-04-10T12:23:00.921Z,48.13
2018-04-10T12:23:39.920Z,48.21
2018-04-10T12:24:39.926Z,47.74
2018-04-10T12:25:40.110Z,48.23
2018-04-10T12:26:40.064Z,48.32
2018-04-10T12:27:39.953Z,48.06
2018-04-10T12:29:00.992Z,48.06
2018-04-10T12:29:39.968Z,47.09
2018-04-10T12:30:39.959Z,46.51
2018-04-10T12:31:39.952Z,46.90
2018-04-10T12:32:39.958Z,46.32
2018-04-10T12:33:39.994Z,46.70
2018-04-10T12:35:00.978Z,47.19
2018-04-10T12:35:40.056Z,46.51
2018-04-10T12:36:40.011Z,46.70
2018-04-10T12:37:39.974Z,46.51
2018-04-10T12:38:39.993Z,46.32
2018-04-10T12:39:40.004Z,46.42
2018-04-10T12:41:01.069Z,45.64
2018-04-10T12:41:40.002Z,46.25
2018-04-10T12:42:40.123Z,44.89
2018-04-10T12:43:40.063Z,45.25
2018-04-10T12:44:40.022Z,45.74
2018-04-10T12:45:40.024Z,44.67
2018-04-10T12:47:01.038Z,44.57
2018-04-10T12:47:40.021Z,45.64
2018-04-10T12:48:40.042Z,44.79
2018-04-10T12:49:40.129Z,44.50
2018-04-10T12:50:40.035Z,43.34
2018-04-10T12:51:40.206Z,43.34
2018-04-10T12:53:01.302Z,43.13